sensor_id;sensor_type;location;lat;lon;timestamp;P1;durP1;ratioP1;P2;durP2;ratioP2
5995;SDS011;3026;53.612;7.278;2022-10-04T00:00:59;7.03;;;3.00;;
5995;SDS011;3026;53.612;7.278;2022-10-04T00:03:33;6.60;;;2.20;;
5995;SDS011;3026;53.612;7.278;2022-10-04T00:06:10;4.90;;;2.23;;
5995;SDS011;3026;53.612;7.278;2022-10-04T00:08:40;4.57;;;2.47;;
5995;SDS011;3026;53.612;7.278;2022-10-04T00:11:14;7.60;;;2.70;;
5995;SDS011;3026;53.612;7.278;2022-10-04T00:13:46;4.50;;;2.70;;
5995;SDS011;3026;53.612;7.278;2022-10-04T00:16:24;5.13;;;2.73;;
5995;SDS011;3026;53.612;7.278;2022-10-04T00:22:08;8.67;;;2.80;;
5995;SDS011;3026;53.612;7.278;2022-10-04T00:24:59;5.10;;;3.47;;
5995;SDS011;3026;53.612;7.278;2022-10-04T00:31:11;7.30;;;3.47;;
5995;SDS011;3026;53.612;7.278;2022-10-04T00:33:46;7.43;;;2.70;;
5995;SDS011;3026;53.612;7.278;2022-10-04T00:39:22;6.50;;;3.13;;
5995;SDS011;3026;53.612;7.278;2022-10-04T00:42:21;8.17;;;3.20;;
5995;SDS011;3026;53.612;7.278;2022-10-04T00:45:12;5.30;;;2.97;;
5995;SDS011;3026;53.612;7.278;2022-10-04T00:47:54;9.50;;;3.67;;
5995;SDS011;3026;53.612;7.278;2022-10-04T00:50:38;9.30;;;4.17;;
5995;SDS011;3026;53.612;7.278;2022-10-04T00:53:12;7.90;;;3.20;;
5995;SDS011;3026;53.612;7.278;2022-10-04T00:55:46;10.53;;;3.90;;
5995;SDS011;3026;53.612;7.278;2022-10-04T00:58:17;8.03;;;4.30;;
5995;SDS011;3026;53.612;7.278;2022-10-04T01:00:52;10.03;;;3.97;;
5995;SDS011;3026;53.612;7.278;2022-10-04T01:03:22;8.27;;;4.33;;
5995;SDS011;3026;53.612;7.278;2022-10-04T01:05:56;11.27;;;4.03;;
5995;SDS011;3026;53.612;7.278;2022-10-04T01:08:26;9.30;;;4.30;;
5995;SDS011;3026;53.612;7.278;2022-10-04T01:10:58;9.80;;;4.10;;
5995;SDS011;3026;53.612;7.278;2022-10-04T01:13:29;9.77;;;4.30;;
5995;SDS011;3026;53.612;7.278;2022-10-04T01:16:02;8.27;;;4.00;;
5995;SDS011;3026;53.612;7.278;2022-10-04T01:18:37;7.60;;;3.60;;
5995;SDS011;3026;53.612;7.278;2022-10-04T01:21:04;11.33;;;4.87;;
5995;SDS011;3026;53.612;7.278;2022-10-04T01:23:45;9.60;;;4.10;;
5995;SDS011;3026;53.612;7.278;2022-10-04T01:29:07;10.03;;;3.83;;
5995;SDS011;3026;53.612;7.278;2022-10-04T01:31:37;8.33;;;3.40;;
5995;SDS011;3026;53.612;7.278;2022-10-04T01:34:06;8.33;;;3.80;;
5995;SDS011;3026;53.612;7.278;2022-10-04T01:36:33;8.80;;;3.50;;
5995;SDS011;3026;53.612;7.278;2022-10-04T01:39:03;13.57;;;4.53;;
5995;SDS011;3026;53.612;7.278;2022-10-04T01:41:36;8.90;;;3.90;;
5995;SDS011;3026;53.612;7.278;2022-10-04T01:44:08;8.60;;;4.17;;
5995;SDS011;3026;53.612;7.278;2022-10-04T01:46:40;9.10;;;3.70;;
5995;SDS011;3026;53.612;7.278;2022-10-04T01:49:08;7.13;;;3.57;;
5995;SDS011;3026;53.612;7.278;2022-10-04T01:51:41;10.53;;;4.00;;
5995;SDS011;3026;53.612;7.278;2022-10-04T01:54:13;10.33;;;4.30;;
5995;SDS011;3026;53.612;7.278;2022-10-04T01:56:44;10.23;;;4.03;;
5995;SDS011;3026;53.612;7.278;2022-10-04T01:59:15;10.70;;;4.10;;
5995;SDS011;3026;53.612;7.278;2022-10-04T02:01:47;9.73;;;4.10;;
5995;SDS011;3026;53.612;7.278;2022-10-04T02:04:18;9.47;;;4.27;;
5995;SDS011;3026;53.612;7.278;2022-10-04T02:06:47;11.67;;;4.90;;
5995;SDS011;3026;53.612;7.278;2022-10-04T02:09:21;8.23;;;4.63;;
5995;SDS011;3026;53.612;7.278;2022-10-04T02:11:51;10.87;;;3.63;;
5995;SDS011;3026;53.612;7.278;2022-10-04T02:14:21;12.43;;;4.07;;
5995;SDS011;3026;53.612;7.278;2022-10-04T02:16:51;11.53;;;3.77;;
5995;SDS011;3026;53.612;7.278;2022-10-04T02:19:19;8.03;;;4.10;;
5995;SDS011;3026;53.612;7.278;2022-10-04T02:21:48;9.30;;;4.03;;
5995;SDS011;3026;53.612;7.278;2022-10-04T02:24:16;7.90;;;3.37;;
5995;SDS011;3026;53.612;7.278;2022-10-04T02:26:49;11.93;;;3.53;;
5995;SDS011;3026;53.612;7.278;2022-10-04T02:29:16;8.53;;;3.80;;
5995;SDS011;3026;53.612;7.278;2022-10-04T02:31:44;12.77;;;3.93;;
5995;SDS011;3026;53.612;7.278;2022-10-04T02:34:29;8.33;;;3.67;;
5995;SDS011;3026;53.612;7.278;2022-10-04T02:36:56;9.33;;;3.43;;
5995;SDS011;3026;53.612;7.278;2022-10-04T02:39:29;11.03;;;3.83;;
5995;SDS011;3026;53.612;7.278;2022-10-04T02:42:07;12.03;;;4.37;;
5995;SDS011;3026;53.612;7.278;2022-10-04T02:44:40;9.10;;;3.90;;
5995;SDS011;3026;53.612;7.278;2022-10-04T02:47:12;11.13;;;4.27;;
5995;SDS011;3026;53.612;7.278;2022-10-04T02:49:43;9.63;;;3.60;;
5995;SDS011;3026;53.612;7.278;2022-10-04T02:52:14;11.00;;;4.33;;
5995;SDS011;3026;53.612;7.278;2022-10-04T02:54:48;9.50;;;4.30;;
5995;SDS011;3026;53.612;7.278;2022-10-04T03:00:09;10.00;;;3.77;;
5995;SDS011;3026;53.612;7.278;2022-10-04T03:05:36;9.10;;;4.53;;
5995;SDS011;3026;53.612;7.278;2022-10-04T03:08:06;8.87;;;3.87;;
5995;SDS011;3026;53.612;7.278;2022-10-04T03:10:33;9.17;;;4.60;;
5995;SDS011;3026;53.612;7.278;2022-10-04T03:13:01;10.70;;;4.53;;
5995;SDS011;3026;53.612;7.278;2022-10-04T03:15:30;11.57;;;4.07;;
5995;SDS011;3026;53.612;7.278;2022-10-04T03:17:57;13.20;;;4.27;;
5995;SDS011;3026;53.612;7.278;2022-10-04T03:20:25;10.10;;;4.43;;
5995;SDS011;3026;53.612;7.278;2022-10-04T03:22:53;7.73;;;4.13;;
5995;SDS011;3026;53.612;7.278;2022-10-04T03:25:21;11.80;;;4.30;;
5995;SDS011;3026;53.612;7.278;2022-10-04T03:27:53;10.13;;;4.60;;
5995;SDS011;3026;53.612;7.278;2022-10-04T03:30:25;9.47;;;4.23;;
5995;SDS011;3026;53.612;7.278;2022-10-04T03:32:53;10.63;;;4.23;;
5995;SDS011;3026;53.612;7.278;2022-10-04T03:35:24;8.87;;;4.47;;
5995;SDS011;3026;53.612;7.278;2022-10-04T03:37:56;9.80;;;4.63;;
5995;SDS011;3026;53.612;7.278;2022-10-04T03:40:28;9.07;;;4.23;;
5995;SDS011;3026;53.612;7.278;2022-10-04T03:42:56;8.97;;;4.33;;
5995;SDS011;3026;53.612;7.278;2022-10-04T03:45:26;7.03;;;4.03;;
5995;SDS011;3026;53.612;7.278;2022-10-04T03:47:55;7.30;;;4.10;;
5995;SDS011;3026;53.612;7.278;2022-10-04T03:50:30;8.90;;;4.47;;
5995;SDS011;3026;53.612;7.278;2022-10-04T03:53:00;8.80;;;5.23;;
5995;SDS011;3026;53.612;7.278;2022-10-04T03:55:34;10.73;;;4.50;;
5995;SDS011;3026;53.612;7.278;2022-10-04T03:58:04;9.77;;;5.43;;
5995;SDS011;3026;53.612;7.278;2022-10-04T04:00:35;12.67;;;5.67;;
5995;SDS011;3026;53.612;7.278;2022-10-04T04:03:11;11.23;;;5.20;;
5995;SDS011;3026;53.612;7.278;2022-10-04T04:05:42;13.23;;;5.10;;
5995;SDS011;3026;53.612;7.278;2022-10-04T04:08:16;10.10;;;4.47;;
5995;SDS011;3026;53.612;7.278;2022-10-04T04:10:51;11.13;;;6.43;;
5995;SDS011;3026;53.612;7.278;2022-10-04T04:13:21;8.73;;;4.97;;
5995;SDS011;3026;53.612;7.278;2022-10-04T04:15:52;8.13;;;5.37;;
5995;SDS011;3026;53.612;7.278;2022-10-04T04:18:22;7.37;;;4.43;;
5995;SDS011;3026;53.612;7.278;2022-10-04T04:20:51;10.27;;;5.20;;
5995;SDS011;3026;53.612;7.278;2022-10-04T04:23:24;8.90;;;5.03;;
5995;SDS011;3026;53.612;7.278;2022-10-04T04:25:57;9.53;;;5.17;;
5995;SDS011;3026;53.612;7.278;2022-10-04T04:28:40;12.73;;;5.33;;
5995;SDS011;3026;53.612;7.278;2022-10-04T04:31:12;12.13;;;6.00;;
5995;SDS011;3026;53.612;7.278;2022-10-04T04:33:48;11.23;;;4.60;;
5995;SDS011;3026;53.612;7.278;2022-10-04T04:36:20;10.03;;;5.53;;
5995;SDS011;3026;53.612;7.278;2022-10-04T04:38:47;17.73;;;5.47;;
5995;SDS011;3026;53.612;7.278;2022-10-04T04:41:31;11.13;;;5.93;;
5995;SDS011;3026;53.612;7.278;2022-10-04T04:44:00;13.53;;;6.17;;
5995;SDS011;3026;53.612;7.278;2022-10-04T04:46:28;10.47;;;5.83;;
5995;SDS011;3026;53.612;7.278;2022-10-04T04:48:58;11.60;;;6.00;;
5995;SDS011;3026;53.612;7.278;2022-10-04T04:51:29;9.13;;;6.13;;
5995;SDS011;3026;53.612;7.278;2022-10-04T04:53:58;14.00;;;5.80;;
5995;SDS011;3026;53.612;7.278;2022-10-04T04:56:27;11.53;;;5.97;;
5995;SDS011;3026;53.612;7.278;2022-10-04T04:58:56;10.20;;;5.97;;
5995;SDS011;3026;53.612;7.278;2022-10-04T05:01:27;10.07;;;6.43;;
5995;SDS011;3026;53.612;7.278;2022-10-04T05:04:02;11.47;;;6.87;;
5995;SDS011;3026;53.612;7.278;2022-10-04T05:06:31;14.20;;;6.50;;
5995;SDS011;3026;53.612;7.278;2022-10-04T05:08:59;15.00;;;6.60;;
5995;SDS011;3026;53.612;7.278;2022-10-04T17:07:20;9.17;;;4.40;;
5995;SDS011;3026;53.612;7.278;2022-10-04T17:09:53;7.87;;;4.77;;
5995;SDS011;3026;53.612;7.278;2022-10-04T17:12:31;8.57;;;5.07;;
5995;SDS011;3026;53.612;7.278;2022-10-04T17:15:18;11.30;;;5.00;;
5995;SDS011;3026;53.612;7.278;2022-10-04T17:18:14;12.10;;;4.50;;
5995;SDS011;3026;53.612;7.278;2022-10-04T17:21:09;7.90;;;4.50;;
5995;SDS011;3026;53.612;7.278;2022-10-04T17:24:15;9.80;;;4.63;;
5995;SDS011;3026;53.612;7.278;2022-10-04T17:27:15;11.37;;;5.23;;
5995;SDS011;3026;53.612;7.278;2022-10-04T17:30:15;11.37;;;5.10;;
5995;SDS011;3026;53.612;7.278;2022-10-04T17:32:53;8.47;;;4.80;;
5995;SDS011;3026;53.612;7.278;2022-10-04T17:35:55;9.33;;;5.00;;
5995;SDS011;3026;53.612;7.278;2022-10-04T18:04:35;8.30;;;4.70;;
5995;SDS011;3026;53.612;7.278;2022-10-04T18:07:32;9.63;;;5.27;;
5995;SDS011;3026;53.612;7.278;2022-10-04T18:10:31;10.13;;;4.40;;
5995;SDS011;3026;53.612;7.278;2022-10-04T18:13:23;5.90;;;4.47;;
5995;SDS011;3026;53.612;7.278;2022-10-04T18:16:16;9.23;;;4.90;;
5995;SDS011;3026;53.612;7.278;2022-10-04T18:22:41;10.10;;;4.53;;
5995;SDS011;3026;53.612;7.278;2022-10-04T18:25:20;10.00;;;4.97;;
5995;SDS011;3026;53.612;7.278;2022-10-04T18:28:10;10.77;;;4.70;;
5995;SDS011;3026;53.612;7.278;2022-10-04T18:30:58;13.00;;;3.93;;
5995;SDS011;3026;53.612;7.278;2022-10-04T18:37:17;9.43;;;4.60;;
5995;SDS011;3026;53.612;7.278;2022-10-04T18:39:47;10.43;;;4.30;;
5995;SDS011;3026;53.612;7.278;2022-10-04T18:42:17;6.17;;;4.70;;
5995;SDS011;3026;53.612;7.278;2022-10-04T18:44:55;6.80;;;4.70;;
5995;SDS011;3026;53.612;7.278;2022-10-04T18:47:32;9.27;;;4.70;;
5995;SDS011;3026;53.612;7.278;2022-10-04T18:50:29;5.97;;;4.53;;
5995;SDS011;3026;53.612;7.278;2022-10-04T18:53:24;8.90;;;4.30;;
5995;SDS011;3026;53.612;7.278;2022-10-04T18:56:26;7.30;;;4.30;;
5995;SDS011;3026;53.612;7.278;2022-10-04T18:59:38;7.23;;;4.43;;
5995;SDS011;3026;53.612;7.278;2022-10-04T19:02:47;12.07;;;5.20;;
5995;SDS011;3026;53.612;7.278;2022-10-04T19:05:22;7.20;;;4.30;;
5995;SDS011;3026;53.612;7.278;2022-10-04T19:08:07;8.80;;;4.47;;
5995;SDS011;3026;53.612;7.278;2022-10-04T19:11:15;7.97;;;4.40;;
5995;SDS011;3026;53.612;7.278;2022-10-04T19:14:10;6.50;;;3.97;;
5995;SDS011;3026;53.612;7.278;2022-10-04T19:16:56;13.83;;;4.60;;
5995;SDS011;3026;53.612;7.278;2022-10-04T19:19:38;8.57;;;4.37;;
5995;SDS011;3026;53.612;7.278;2022-10-04T19:22:25;6.83;;;4.40;;
5995;SDS011;3026;53.612;7.278;2022-10-04T19:25:15;10.07;;;4.40;;
5995;SDS011;3026;53.612;7.278;2022-10-04T19:28:16;6.70;;;4.67;;
5995;SDS011;3026;53.612;7.278;2022-10-04T19:31:05;6.03;;;4.07;;
5995;SDS011;3026;53.612;7.278;2022-10-04T19:33:45;11.83;;;4.20;;
5995;SDS011;3026;53.612;7.278;2022-10-04T19:36:32;7.23;;;4.00;;
5995;SDS011;3026;53.612;7.278;2022-10-04T19:39:19;5.60;;;4.13;;
5995;SDS011;3026;53.612;7.278;2022-10-04T19:42:16;8.90;;;5.63;;
5995;SDS011;3026;53.612;7.278;2022-10-04T19:45:24;7.27;;;4.13;;
5995;SDS011;3026;53.612;7.278;2022-10-04T19:48:25;7.17;;;4.57;;
5995;SDS011;3026;53.612;7.278;2022-10-04T19:51:03;11.83;;;4.40;;
5995;SDS011;3026;53.612;7.278;2022-10-04T19:53:42;6.30;;;4.40;;
5995;SDS011;3026;53.612;7.278;2022-10-04T19:56:21;7.40;;;4.30;;
5995;SDS011;3026;53.612;7.278;2022-10-04T19:58:58;8.30;;;4.97;;
5995;SDS011;3026;53.612;7.278;2022-10-04T20:01:40;11.67;;;4.93;;
5995;SDS011;3026;53.612;7.278;2022-10-04T20:04:36;8.53;;;5.00;;
5995;SDS011;3026;53.612;7.278;2022-10-04T20:07:28;7.90;;;5.10;;
5995;SDS011;3026;53.612;7.278;2022-10-04T20:10:07;6.63;;;4.87;;
5995;SDS011;3026;53.612;7.278;2022-10-04T20:15:41;5.73;;;4.27;;
5995;SDS011;3026;53.612;7.278;2022-10-04T20:21:41;10.90;;;5.10;;
5995;SDS011;3026;53.612;7.278;2022-10-04T20:30:47;6.63;;;4.43;;
5995;SDS011;3026;53.612;7.278;2022-10-04T20:33:42;8.00;;;4.27;;
5995;SDS011;3026;53.612;7.278;2022-10-04T20:42:26;14.63;;;5.03;;
5995;SDS011;3026;53.612;7.278;2022-10-04T20:45:21;6.17;;;4.77;;
5995;SDS011;3026;53.612;7.278;2022-10-04T20:47:57;7.07;;;4.97;;
5995;SDS011;3026;53.612;7.278;2022-10-04T20:50:27;6.90;;;4.93;;
5995;SDS011;3026;53.612;7.278;2022-10-04T20:53:13;8.27;;;4.90;;
5995;SDS011;3026;53.612;7.278;2022-10-04T20:55:44;9.87;;;5.20;;
5995;SDS011;3026;53.612;7.278;2022-10-04T20:58:23;7.27;;;5.07;;
5995;SDS011;3026;53.612;7.278;2022-10-04T21:00:57;12.70;;;5.23;;
5995;SDS011;3026;53.612;7.278;2022-10-04T21:03:27;10.03;;;5.37;;
5995;SDS011;3026;53.612;7.278;2022-10-04T21:06:00;9.27;;;5.47;;
5995;SDS011;3026;53.612;7.278;2022-10-04T21:08:35;8.80;;;5.80;;
5995;SDS011;3026;53.612;7.278;2022-10-04T21:11:14;6.97;;;5.60;;
5995;SDS011;3026;53.612;7.278;2022-10-04T21:13:47;9.83;;;5.40;;
5995;SDS011;3026;53.612;7.278;2022-10-04T21:16:35;8.40;;;6.23;;
5995;SDS011;3026;53.612;7.278;2022-10-04T21:25:27;9.57;;;6.00;;
5995;SDS011;3026;53.612;7.278;2022-10-04T21:31:37;10.40;;;6.30;;
5995;SDS011;3026;53.612;7.278;2022-10-04T21:34:04;9.47;;;5.57;;
5995;SDS011;3026;53.612;7.278;2022-10-04T21:36:31;8.50;;;6.40;;
5995;SDS011;3026;53.612;7.278;2022-10-04T21:38:58;9.67;;;6.00;;
5995;SDS011;3026;53.612;7.278;2022-10-04T21:41:27;8.97;;;5.90;;
5995;SDS011;3026;53.612;7.278;2022-10-04T21:43:54;12.07;;;6.17;;
5995;SDS011;3026;53.612;7.278;2022-10-04T21:46:21;8.17;;;5.43;;
5995;SDS011;3026;53.612;7.278;2022-10-04T21:48:48;12.17;;;6.57;;
5995;SDS011;3026;53.612;7.278;2022-10-04T21:51:15;8.40;;;5.37;;
5995;SDS011;3026;53.612;7.278;2022-10-04T21:53:44;10.10;;;6.50;;
5995;SDS011;3026;53.612;7.278;2022-10-04T21:56:13;9.53;;;5.90;;
5995;SDS011;3026;53.612;7.278;2022-10-04T21:58:42;10.73;;;6.80;;
5995;SDS011;3026;53.612;7.278;2022-10-04T22:01:12;10.07;;;6.80;;
5995;SDS011;3026;53.612;7.278;2022-10-04T22:03:39;12.70;;;6.53;;
5995;SDS011;3026;53.612;7.278;2022-10-04T22:06:06;8.97;;;6.47;;
5995;SDS011;3026;53.612;7.278;2022-10-04T22:08:33;8.00;;;6.10;;
5995;SDS011;3026;53.612;7.278;2022-10-04T22:11:01;10.00;;;5.93;;
5995;SDS011;3026;53.612;7.278;2022-10-04T22:13:28;10.27;;;6.10;;
5995;SDS011;3026;53.612;7.278;2022-10-04T22:15:57;11.47;;;6.27;;
5995;SDS011;3026;53.612;7.278;2022-10-04T22:18:26;11.83;;;7.03;;
5995;SDS011;3026;53.612;7.278;2022-10-04T22:20:54;10.80;;;6.80;;
5995;SDS011;3026;53.612;7.278;2022-10-04T22:23:21;9.23;;;6.53;;
5995;SDS011;3026;53.612;7.278;2022-10-04T22:25:50;11.10;;;6.73;;
5995;SDS011;3026;53.612;7.278;2022-10-04T22:28:20;10.67;;;6.30;;
5995;SDS011;3026;53.612;7.278;2022-10-04T22:30:49;7.00;;;5.50;;
5995;SDS011;3026;53.612;7.278;2022-10-04T22:33:32;11.00;;;6.70;;
5995;SDS011;3026;53.612;7.278;2022-10-04T22:36:07;10.67;;;6.17;;
5995;SDS011;3026;53.612;7.278;2022-10-04T22:38:38;9.63;;;6.43;;
5995;SDS011;3026;53.612;7.278;2022-10-04T22:41:08;11.67;;;6.37;;
5995;SDS011;3026;53.612;7.278;2022-10-04T22:43:37;10.03;;;6.50;;
5995;SDS011;3026;53.612;7.278;2022-10-04T22:46:04;9.00;;;6.23;;
5995;SDS011;3026;53.612;7.278;2022-10-04T22:48:40;12.93;;;6.90;;
5995;SDS011;3026;53.612;7.278;2022-10-04T22:51:10;10.77;;;7.07;;
5995;SDS011;3026;53.612;7.278;2022-10-04T22:53:40;11.80;;;6.27;;
5995;SDS011;3026;53.612;7.278;2022-10-04T22:56:10;10.90;;;7.00;;
5995;SDS011;3026;53.612;7.278;2022-10-04T22:58:39;9.13;;;6.67;;
5995;SDS011;3026;53.612;7.278;2022-10-04T23:01:11;12.53;;;6.67;;
5995;SDS011;3026;53.612;7.278;2022-10-04T23:03:41;9.50;;;6.90;;
5995;SDS011;3026;53.612;7.278;2022-10-04T23:06:12;9.43;;;7.23;;
5995;SDS011;3026;53.612;7.278;2022-10-04T23:08:40;9.07;;;6.10;;
5995;SDS011;3026;53.612;7.278;2022-10-04T23:11:09;10.70;;;6.50;;
5995;SDS011;3026;53.612;7.278;2022-10-04T23:13:36;9.03;;;7.07;;
5995;SDS011;3026;53.612;7.278;2022-10-04T23:16:08;9.13;;;6.80;;
5995;SDS011;3026;53.612;7.278;2022-10-04T23:18:38;11.80;;;6.70;;
5995;SDS011;3026;53.612;7.278;2022-10-04T23:21:35;8.80;;;6.63;;
5995;SDS011;3026;53.612;7.278;2022-10-04T23:24:05;10.30;;;6.87;;
5995;SDS011;3026;53.612;7.278;2022-10-04T23:26:40;8.47;;;6.63;;
5995;SDS011;3026;53.612;7.278;2022-10-04T23:29:12;10.07;;;6.47;;
5995;SDS011;3026;53.612;7.278;2022-10-04T23:31:43;12.10;;;6.23;;
5995;SDS011;3026;53.612;7.278;2022-10-04T23:34:15;8.67;;;6.00;;
5995;SDS011;3026;53.612;7.278;2022-10-04T23:36:44;9.17;;;6.50;;
5995;SDS011;3026;53.612;7.278;2022-10-04T23:39:15;7.13;;;5.83;;
5995;SDS011;3026;53.612;7.278;2022-10-04T23:41:50;9.73;;;6.43;;
5995;SDS011;3026;53.612;7.278;2022-10-04T23:44:18;11.60;;;7.03;;
5995;SDS011;3026;53.612;7.278;2022-10-04T23:46:45;11.00;;;7.07;;
5995;SDS011;3026;53.612;7.278;2022-10-04T23:49:15;10.37;;;7.00;;
5995;SDS011;3026;53.612;7.278;2022-10-04T23:51:43;8.67;;;6.03;;
5995;SDS011;3026;53.612;7.278;2022-10-04T23:54:12;8.37;;;6.93;;
5995;SDS011;3026;53.612;7.278;2022-10-04T23:56:41;11.70;;;7.43;;
5995;SDS011;3026;53.612;7.278;2022-10-04T23:59:12;8.67;;;6.93;;
